createdAt,value
2022-12-13T00:00:10.517Z,35.52
2022-12-13T00:00:45.097Z,35.95
2022-12-13T00:01:20.310Z,35.60
2022-12-13T00:01:54.284Z,35.55
2022-12-13T00:02:26.655Z,35.57
2022-12-13T00:03:01.497Z,35.47
2022-12-13T00:03:33.765Z,35.57
2022-12-13T00:04:07.437Z,35.48
2022-12-13T00:04:42.296Z,35.56
2022-12-13T00:05:14.746Z,35.39
2022-12-13T00:05:50.205Z,35.84
2022-12-13T00:06:22.443Z,35.79
2022-12-13T00:06:57.304Z,35.74
2022-12-13T00:07:29.564Z,35.66
2022-12-13T00:08:02.168Z,35.79
2022-12-13T00:08:37.088Z,35.73
2022-12-13T00:09:09.435Z,35.64
2022-12-13T00:09:44.364Z,35.51
2022-12-13T00:10:19.189Z,35.69
2022-12-13T00:11:00.327Z,35.69
2022-12-13T00:11:35.384Z,35.38
2022-12-13T00:12:07.668Z,35.74
2022-12-13T00:12:42.517Z,35.36
2022-12-13T00:13:15.367Z,35.41
2022-12-13T00:13:48.159Z,35.51
2022-12-13T00:14:23.166Z,35.62
2022-12-13T00:14:55.436Z,35.42
2022-12-13T00:15:27.645Z,35.61
2022-12-13T00:16:03.695Z,35.69
2022-12-13T00:16:36.030Z,35.85
2022-12-13T00:17:10.894Z,35.72
2022-12-13T00:17:43.331Z,35.85
2022-12-13T00:18:15.540Z,35.84
2022-12-13T00:18:50.564Z,35.89
2022-12-13T00:19:22.773Z,35.58
2022-12-13T00:19:58.985Z,35.69
2022-12-13T00:20:31.185Z,35.40
2022-12-13T00:21:05.884Z,35.93
2022-12-13T00:21:40.696Z,35.76
2022-12-13T00:22:12.956Z,35.57
2022-12-13T00:22:45.189Z,35.57
2022-12-13T00:23:20.044Z,35.68
2022-12-13T00:23:52.692Z,35.64
2022-12-13T00:24:24.894Z,35.88
2022-12-13T00:24:59.727Z,35.83
2022-12-13T00:25:34.595Z,35.68
2022-12-13T00:26:08.431Z,35.96
2022-12-13T00:26:43.527Z,36.09
2022-12-13T00:27:15.756Z,35.86
2022-12-13T00:27:50.618Z,36.03
2022-12-13T00:28:22.840Z,35.93
2022-12-13T00:28:55.191Z,35.73
2022-12-13T00:29:30.008Z,35.93
2022-12-13T00:30:02.281Z,35.90
2022-12-13T00:30:34.783Z,35.62
2022-12-13T00:31:51.635Z,35.62
2022-12-13T00:32:02.909Z,35.81
2022-12-13T00:32:37.823Z,35.67
2022-12-13T00:33:10.161Z,36.01
2022-12-13T00:33:42.518Z,36.10
2022-12-13T00:34:17.365Z,35.93
2022-12-13T00:34:49.597Z,35.80
2022-12-13T00:35:24.440Z,35.83
2022-12-13T00:35:57.144Z,36.01
2022-12-13T00:36:29.365Z,36.00
2022-12-13T00:37:04.171Z,35.78
2022-12-13T00:37:36.379Z,35.93
2022-12-13T00:38:10.512Z,35.86
2022-12-13T00:38:45.406Z,36.04
2022-12-13T00:39:19.276Z,35.83
2022-12-13T00:39:52.415Z,36.25
2022-12-13T00:40:27.339Z,36.18
2022-12-13T00:41:10.533Z,35.99
2022-12-13T00:41:45.819Z,35.96
2022-12-13T00:42:18.069Z,36.26
2022-12-13T00:42:50.317Z,36.26
2022-12-13T00:43:25.142Z,36.18
2022-12-13T00:43:57.989Z,35.96
2022-12-13T00:44:32.919Z,35.71
2022-12-13T00:45:06.098Z,35.82
2022-12-13T00:45:38.436Z,36.06
2022-12-13T00:46:17.148Z,35.84
2022-12-13T00:46:51.840Z,34.88
2022-12-13T00:47:26.732Z,35.62
2022-12-13T00:47:58.973Z,35.54
2022-12-13T00:48:31.213Z,35.75
2022-12-13T00:49:06.692Z,36.05
2022-12-13T00:49:39.166Z,36.67
2022-12-13T00:50:14.004Z,38.31
2022-12-13T00:50:46.204Z,38.39
2022-12-13T00:51:18.502Z,37.58
2022-12-13T00:51:53.305Z,36.61
2022-12-13T00:52:25.535Z,36.82
2022-12-13T00:52:59.346Z,36.16
2022-12-13T00:53:34.178Z,36.03
2022-12-13T00:54:06.656Z,35.63
2022-12-13T00:54:41.464Z,35.33
2022-12-13T00:55:13.927Z,35.58
2022-12-13T00:55:47.627Z,35.34
2022-12-13T00:56:27.006Z,35.80
2022-12-13T00:56:59.204Z,35.39
2022-12-13T00:57:34.063Z,35.11
2022-12-13T00:58:06.350Z,35.13
2022-12-13T00:58:38.626Z,35.61
2022-12-13T00:59:17.369Z,35.63
2022-12-13T00:59:50.748Z,35.32
2022-12-13T01:00:23.073Z,35.73
2022-12-13T01:01:05.802Z,35.35
2022-12-13T01:01:38.074Z,35.33
2022-12-13T01:02:12.895Z,35.59
2022-12-13T01:02:45.184Z,35.36
2022-12-13T01:03:25.745Z,35.67
2022-12-13T01:04:02.857Z,35.61
2022-12-13T01:04:35.101Z,35.57
2022-12-13T01:05:10.892Z,35.64
2022-12-13T01:06:13.747Z,35.31
2022-12-13T01:06:37.285Z,35.79
2022-12-13T01:07:12.100Z,35.80
2022-12-13T01:07:45.223Z,35.35
2022-12-13T01:08:17.617Z,35.70
2022-12-13T01:08:52.964Z,35.81
2022-12-13T01:09:28.853Z,35.87
2022-12-13T01:10:03.927Z,35.90
2022-12-13T01:10:36.141Z,35.84
2022-12-13T01:11:08.731Z,35.46
2022-12-13T01:11:46.469Z,35.47
2022-12-13T01:12:18.681Z,35.79
2022-12-13T01:12:50.873Z,35.33
2022-12-13T01:13:25.688Z,35.59
2022-12-13T01:13:57.982Z,35.61
2022-12-13T01:14:33.773Z,35.57
2022-12-13T01:15:07.465Z,35.37
2022-12-13T01:15:42.416Z,35.62
2022-12-13T01:16:18.812Z,35.35
2022-12-13T01:16:51.291Z,35.41
2022-12-13T01:17:26.123Z,35.59
2022-12-13T01:17:58.339Z,35.53
2022-12-13T01:18:30.547Z,35.69
2022-12-13T01:19:02.814Z,35.42
2022-12-13T01:19:38.209Z,35.28
2022-12-13T01:20:12.100Z,35.50
2022-12-13T01:20:44.805Z,35.63
2022-12-13T01:21:22.158Z,35.58
2022-12-13T01:21:54.657Z,35.83
2022-12-13T01:22:26.869Z,35.56
2022-12-13T01:23:01.675Z,35.68
2022-12-13T01:23:34.693Z,35.70
2022-12-13T01:24:07.359Z,35.71
2022-12-13T01:24:42.176Z,35.52
2022-12-13T01:25:14.919Z,35.83
2022-12-13T01:25:47.321Z,35.56
2022-12-13T01:26:24.187Z,35.52
2022-12-13T01:26:59.052Z,35.32
2022-12-13T01:27:31.257Z,35.40
2022-12-13T01:28:06.076Z,35.33
2022-12-13T01:28:38.686Z,35.67
2022-12-13T01:29:13.538Z,35.45
2022-12-13T01:29:45.772Z,35.15
2022-12-13T01:30:18.180Z,35.40
2022-12-13T01:30:59.930Z,35.49
2022-12-13T01:31:33.558Z,35.52
2022-12-13T01:32:08.832Z,35.51
2022-12-13T01:32:41.032Z,35.54
2022-12-13T01:33:14.305Z,35.50
2022-12-13T01:33:49.944Z,35.42
2022-12-13T01:34:26.484Z,35.56
2022-12-13T01:35:01.699Z,35.62
2022-12-13T01:35:34.447Z,35.62
2022-12-13T01:36:09.772Z,35.69
2022-12-13T01:36:46.382Z,35.67
2022-12-13T01:37:18.593Z,35.69
2022-12-13T01:37:50.831Z,35.37
2022-12-13T01:38:26.502Z,35.57
2022-12-13T01:38:59.344Z,35.67
2022-12-13T01:39:38.150Z,35.69
2022-12-13T01:40:15.770Z,35.39
2022-12-13T01:40:50.732Z,35.54
2022-12-13T01:41:27.324Z,35.67
2022-12-13T01:42:04.596Z,35.34
2022-12-13T01:42:38.237Z,35.76
2022-12-13T01:43:15.338Z,35.62
2022-12-13T01:43:56.149Z,35.41
2022-12-13T01:45:00.938Z,35.72
2022-12-13T01:45:34.072Z,35.71
2022-12-13T01:46:06.329Z,35.70
2022-12-13T01:46:41.154Z,35.33
2022-12-13T01:47:15.443Z,35.45
2022-12-13T01:47:49.617Z,35.52
2022-12-13T01:48:27.764Z,35.82
2022-12-13T01:49:04.420Z,35.63
2022-12-13T01:49:36.694Z,35.84
2022-12-13T01:50:14.010Z,35.40
2022-12-13T01:50:48.777Z,35.38
2022-12-13T01:51:25.932Z,35.73
2022-12-13T01:52:05.223Z,35.85
2022-12-13T01:52:38.096Z,35.79
2022-12-13T01:53:14.780Z,35.88
2022-12-13T01:53:50.356Z,35.67
2022-12-13T01:54:33.589Z,35.81
2022-12-13T01:55:10.955Z,35.57
2022-12-13T01:55:45.895Z,35.84
2022-12-13T01:56:28.368Z,35.59
2022-12-13T01:57:04.628Z,35.38
2022-12-13T01:57:45.443Z,35.71
2022-12-13T01:58:19.456Z,35.33
2022-12-13T01:58:55.480Z,35.30
2022-12-13T01:59:28.481Z,35.73
2022-12-13T02:00:00.912Z,35.73
2022-12-13T02:00:37.184Z,35.38
2022-12-13T02:01:13.189Z,35.52
2022-12-13T02:01:46.553Z,35.54
2022-12-13T02:02:21.481Z,35.28
2022-12-13T02:02:54.841Z,35.81
2022-12-13T02:03:27.516Z,35.79
2022-12-13T02:04:02.333Z,35.72
2022-12-13T02:04:44.176Z,35.44
2022-12-13T02:05:26.024Z,35.56
2022-12-13T02:06:01.949Z,35.28
2022-12-13T02:06:35.672Z,35.25
2022-12-13T02:07:10.665Z,35.28
2022-12-13T02:07:45.605Z,35.54
2022-12-13T02:08:19.688Z,35.56
2022-12-13T02:08:54.536Z,35.40
2022-12-13T02:09:26.988Z,35.62
2022-12-13T02:10:01.028Z,35.64
2022-12-13T02:10:36.034Z,35.64
2022-12-13T02:11:08.318Z,35.37
2022-12-13T02:11:44.935Z,35.31
2022-12-13T02:12:22.797Z,35.56
2022-12-13T02:13:02.000Z,35.23
2022-12-13T02:13:36.820Z,35.55
2022-12-13T02:14:09.983Z,35.55
2022-12-13T02:14:42.339Z,35.46
2022-12-13T02:15:19.757Z,35.40
2022-12-13T02:15:59.172Z,35.30
2022-12-13T02:16:39.665Z,35.13
2022-12-13T02:17:22.362Z,35.21
2022-12-13T02:18:12.472Z,35.16
2022-12-13T02:18:58.557Z,35.23
2022-12-13T02:20:07.933Z,35.21
2022-12-13T02:20:59.596Z,35.33
2022-12-13T02:21:35.711Z,35.69
2022-12-13T02:22:19.661Z,35.34
2022-12-13T02:23:11.845Z,35.26
2022-12-13T02:24:32.739Z,35.81
2022-12-13T02:25:22.480Z,35.50
2022-12-13T02:26:16.005Z,35.50
2022-12-13T02:27:02.611Z,35.63
2022-12-13T02:28:00.703Z,35.38
2022-12-13T02:28:48.244Z,35.18
2022-12-13T02:29:37.292Z,35.47
2022-12-13T02:30:30.669Z,35.56
2022-12-13T02:31:08.211Z,35.65
2022-12-13T02:31:46.300Z,35.27
2022-12-13T02:32:26.836Z,35.23
2022-12-13T02:33:13.274Z,35.29
2022-12-13T02:33:59.650Z,35.17
2022-12-13T02:34:36.041Z,35.58
2022-12-13T02:35:10.452Z,35.40
2022-12-13T02:35:48.576Z,35.19
2022-12-13T02:36:29.345Z,35.45
2022-12-13T02:37:18.214Z,35.07
2022-12-13T02:37:55.815Z,35.47
2022-12-13T02:38:32.577Z,35.17
2022-12-13T02:39:11.420Z,35.31
2022-12-13T02:39:48.093Z,35.31
2022-12-13T02:40:23.257Z,35.36
2022-12-13T02:41:03.032Z,35.26
2022-12-13T02:41:37.935Z,35.26
2022-12-13T02:42:21.902Z,35.41
2022-12-13T02:43:00.347Z,35.52
2022-12-13T02:43:35.885Z,35.15
2022-12-13T02:44:22.909Z,35.19
2022-12-13T02:44:58.995Z,35.53
2022-12-13T02:45:39.722Z,35.32
2022-12-13T02:46:13.124Z,35.47
2022-12-13T02:46:54.689Z,35.18
2022-12-13T02:47:27.961Z,35.48
2022-12-13T02:48:02.004Z,35.28
2022-12-13T02:48:40.830Z,35.40
2022-12-13T02:49:13.322Z,35.42
2022-12-13T02:49:48.709Z,35.33
2022-12-13T02:50:23.891Z,35.10
2022-12-13T02:50:56.813Z,35.40
2022-12-13T02:51:29.514Z,35.52
2022-12-13T02:52:04.636Z,35.53
2022-12-13T02:52:37.630Z,35.48
2022-12-13T02:53:10.361Z,35.31
2022-12-13T02:53:46.094Z,35.16
2022-12-13T02:54:18.333Z,35.47
2022-12-13T02:54:51.017Z,35.09
2022-12-13T02:55:28.255Z,35.30
2022-12-13T02:56:00.794Z,35.29
2022-12-13T02:56:35.738Z,35.52
2022-12-13T02:57:29.676Z,35.52
2022-12-13T02:58:02.196Z,35.17
2022-12-13T02:58:39.963Z,35.08
2022-12-13T02:59:13.497Z,35.49
2022-12-13T02:59:45.707Z,35.14
2022-12-13T03:00:23.246Z,35.47
2022-12-13T03:01:29.081Z,35.12
2022-12-13T03:02:10.883Z,35.42
2022-12-13T03:02:56.886Z,35.54
2022-12-13T03:03:38.595Z,35.38
2022-12-13T03:04:15.741Z,35.31
2022-12-13T03:05:09.866Z,35.22
2022-12-13T03:06:02.308Z,35.59
2022-12-13T03:06:43.705Z,35.30
2022-12-13T03:07:22.713Z,35.32
2022-12-13T03:08:02.044Z,35.23
2022-12-13T03:08:43.808Z,35.16
2022-12-13T03:09:33.531Z,35.21
2022-12-13T03:10:08.423Z,35.50
2022-12-13T03:10:55.087Z,35.60
2022-12-13T03:11:46.338Z,35.43
2022-12-13T03:12:39.584Z,35.13
2022-12-13T03:13:30.232Z,35.37
2022-12-13T03:14:09.383Z,35.14
2022-12-13T03:14:49.428Z,35.39
2022-12-13T03:15:25.010Z,35.18
2022-12-13T03:16:05.879Z,35.38
2022-12-13T03:16:41.571Z,35.18
2022-12-13T03:17:14.736Z,35.11
2022-12-13T03:17:53.359Z,35.50
2022-12-13T03:18:27.168Z,35.13
2022-12-13T03:19:03.389Z,35.57
2022-12-13T03:19:35.801Z,35.16
2022-12-13T03:20:12.507Z,35.38
2022-12-13T03:21:02.496Z,35.17
2022-12-13T03:21:42.541Z,35.54
2022-12-13T03:22:22.036Z,35.33
2022-12-13T03:22:54.772Z,35.31
2022-12-13T03:23:27.476Z,35.55
2022-12-13T03:24:02.356Z,35.12
2022-12-13T03:24:34.937Z,35.21
2022-12-13T03:25:07.903Z,35.55
2022-12-13T03:25:42.781Z,35.34
2022-12-13T03:26:17.358Z,35.14
2022-12-13T03:26:50.728Z,35.35
2022-12-13T03:27:25.599Z,35.16
2022-12-13T03:27:57.811Z,35.55
2022-12-13T03:28:34.203Z,35.40
2022-12-13T03:29:09.992Z,35.39
2022-12-13T03:29:42.202Z,35.49
2022-12-13T03:30:14.817Z,35.38
2022-12-13T03:30:49.731Z,35.30
2022-12-13T03:31:24.708Z,35.36
2022-12-13T03:31:57.000Z,35.43
2022-12-13T03:32:31.808Z,35.22
2022-12-13T03:33:04.100Z,35.40
2022-12-13T03:33:36.481Z,35.52
2022-12-13T03:34:12.396Z,35.54
2022-12-13T03:34:46.145Z,35.44
2022-12-13T03:35:23.455Z,35.15
2022-12-13T03:35:56.402Z,35.53
2022-12-13T03:36:31.271Z,35.18
2022-12-13T03:37:03.564Z,35.23
2022-12-13T03:37:35.788Z,35.21
2022-12-13T03:38:10.724Z,35.51
2022-12-13T03:38:43.065Z,35.51
2022-12-13T03:39:17.881Z,35.47
2022-12-13T03:39:50.128Z,35.61
2022-12-13T03:40:22.505Z,35.55
2022-12-13T03:41:02.200Z,35.29
2022-12-13T03:41:34.515Z,35.18
2022-12-13T03:42:06.945Z,35.42
2022-12-13T03:42:41.771Z,35.46
2022-12-13T03:43:14.017Z,35.50
2022-12-13T03:43:57.336Z,35.22
2022-12-13T03:44:31.439Z,35.06
2022-12-13T03:45:04.619Z,35.04
2022-12-13T03:45:39.996Z,35.39
2022-12-13T03:46:12.425Z,35.34
2022-12-13T03:46:49.892Z,35.11
2022-12-13T03:47:22.271Z,35.40
2022-12-13T03:47:54.497Z,35.26
2022-12-13T03:48:29.423Z,35.18
2022-12-13T03:49:01.776Z,35.22
2022-12-13T03:49:35.168Z,35.41
2022-12-13T03:50:26.553Z,35.53
2022-12-13T03:50:59.802Z,35.36
2022-12-13T03:51:34.648Z,35.01
2022-12-13T03:52:06.849Z,35.39
2022-12-13T03:52:39.264Z,35.19
2022-12-13T03:53:23.247Z,35.33
2022-12-13T03:54:05.195Z,35.09
2022-12-13T03:54:40.000Z,35.14
2022-12-13T03:55:18.104Z,35.28
2022-12-13T03:55:50.337Z,35.26
2022-12-13T03:56:26.364Z,35.25
2022-12-13T03:56:58.646Z,35.08
2022-12-13T03:57:30.857Z,35.06
2022-12-13T03:58:08.023Z,35.09
2022-12-13T03:58:42.267Z,35.02
2022-12-13T03:59:17.077Z,35.30
2022-12-13T03:59:49.328Z,34.98
2022-12-13T04:00:21.936Z,35.35
2022-12-13T04:00:56.746Z,35.10
2022-12-13T04:01:29.013Z,35.42
2022-12-13T04:02:06.501Z,35.17
2022-12-13T04:02:38.818Z,34.97
2022-12-13T04:03:11.634Z,35.21
2022-12-13T04:03:47.884Z,35.01
2022-12-13T04:04:20.114Z,34.99
2022-12-13T04:04:52.372Z,35.06
2022-12-13T04:05:27.251Z,34.99
2022-12-13T04:05:59.474Z,35.18
2022-12-13T04:06:34.283Z,35.18
2022-12-13T04:07:06.515Z,35.21
2022-12-13T04:07:54.868Z,35.17
2022-12-13T04:08:35.962Z,35.00
2022-12-13T04:09:08.285Z,35.23
2022-12-13T04:09:40.480Z,34.95
2022-12-13T04:10:26.143Z,34.99
2022-12-13T04:10:58.962Z,35.37
2022-12-13T04:11:46.189Z,35.12
2022-12-13T04:12:33.393Z,35.18
2022-12-13T04:13:20.628Z,35.03
2022-12-13T04:13:53.135Z,35.31
2022-12-13T04:14:28.037Z,35.33
2022-12-13T04:15:00.249Z,35.45
2022-12-13T04:15:32.468Z,35.50
2022-12-13T04:16:07.867Z,35.14
2022-12-13T04:16:40.110Z,35.48
2022-12-13T04:17:17.550Z,35.06
2022-12-13T04:17:51.053Z,35.28
2022-12-13T04:18:23.620Z,35.11
2022-12-13T04:18:58.420Z,35.06
2022-12-13T04:19:30.649Z,35.38
2022-12-13T04:20:02.912Z,35.02
2022-12-13T04:20:37.721Z,35.16
2022-12-13T04:21:09.920Z,35.35
2022-12-13T04:21:42.225Z,35.01
2022-12-13T04:22:23.294Z,35.40
2022-12-13T04:22:57.124Z,35.19
2022-12-13T04:23:29.356Z,35.23
2022-12-13T04:24:04.189Z,35.04
2022-12-13T04:24:37.620Z,35.54
2022-12-13T04:25:10.066Z,35.13
2022-12-13T04:25:45.683Z,35.35
2022-12-13T04:26:17.907Z,35.28
2022-12-13T04:26:52.777Z,35.15
2022-12-13T04:27:25.008Z,35.45
2022-12-13T04:27:57.228Z,35.13
2022-12-13T04:28:32.436Z,35.48
2022-12-13T04:29:04.639Z,34.99
2022-12-13T04:29:36.851Z,35.10
2022-12-13T04:30:12.756Z,35.25
2022-12-13T04:30:44.980Z,35.06
2022-12-13T04:31:17.224Z,35.21
2022-12-13T04:31:52.084Z,35.23
2022-12-13T04:32:27.523Z,35.48
2022-12-13T04:32:59.981Z,35.28
2022-12-13T04:33:35.361Z,35.31
2022-12-13T04:34:07.563Z,35.08
2022-12-13T04:34:39.784Z,35.30
2022-12-13T04:35:14.959Z,35.34
2022-12-13T04:35:47.377Z,35.08
2022-12-13T04:36:32.246Z,35.47
2022-12-13T04:37:07.772Z,35.31
2022-12-13T04:37:39.990Z,35.45
2022-12-13T04:38:15.919Z,35.47
2022-12-13T04:38:50.717Z,35.12
2022-12-13T04:39:23.101Z,35.05
2022-12-13T04:40:00.407Z,35.40
2022-12-13T04:40:36.052Z,35.43
2022-12-13T04:41:10.195Z,35.47
2022-12-13T04:41:42.396Z,35.50
2022-12-13T04:42:17.645Z,35.30
2022-12-13T04:42:53.975Z,35.54
2022-12-13T04:43:26.696Z,35.40
2022-12-13T04:44:01.511Z,35.25
2022-12-13T04:44:37.130Z,35.20
2022-12-13T04:45:13.705Z,35.55
2022-12-13T04:45:46.213Z,35.13
2022-12-13T04:46:18.617Z,35.29
2022-12-13T04:46:53.494Z,35.52
2022-12-13T04:47:35.685Z,35.04
2022-12-13T04:48:10.571Z,35.10
2022-12-13T04:48:42.782Z,35.15
2022-12-13T04:49:18.396Z,35.19
2022-12-13T04:49:50.603Z,35.06
2022-12-13T04:50:22.856Z,35.01
2022-12-13T04:50:57.693Z,35.10
2022-12-13T04:51:33.388Z,35.46
2022-12-13T04:52:05.645Z,35.39
2022-12-13T04:52:40.751Z,35.52
2022-12-13T04:53:15.752Z,35.39
2022-12-13T04:53:50.587Z,35.23
2022-12-13T04:54:24.297Z,35.42
2022-12-13T04:54:59.511Z,35.08
2022-12-13T04:55:31.722Z,35.26
2022-12-13T04:56:04.573Z,35.06
2022-12-13T04:56:40.560Z,35.06
2022-12-13T04:57:12.980Z,35.00
2022-12-13T04:57:47.787Z,35.11
2022-12-13T04:58:23.126Z,35.06
2022-12-13T04:58:58.152Z,35.33
2022-12-13T04:59:30.368Z,35.43
2022-12-13T05:00:02.684Z,35.04
2022-12-13T05:00:37.583Z,35.06
2022-12-13T05:01:11.405Z,35.01
2022-12-13T05:01:43.723Z,35.24
2022-12-13T05:02:23.475Z,35.39
2022-12-13T05:02:59.207Z,35.11
2022-12-13T05:03:34.011Z,35.23
2022-12-13T05:04:06.428Z,35.07
2022-12-13T05:04:38.661Z,35.06
2022-12-13T05:05:15.290Z,35.46
2022-12-13T05:05:47.759Z,35.14
2022-12-13T05:06:27.167Z,35.41
2022-12-13T05:07:02.654Z,35.45
2022-12-13T05:07:35.841Z,35.04
2022-12-13T05:08:17.346Z,35.11
2022-12-13T05:08:49.609Z,35.41
2022-12-13T05:09:21.922Z,35.19
2022-12-13T05:09:56.880Z,35.35
2022-12-13T05:10:33.797Z,35.38
2022-12-13T05:11:13.445Z,35.04
2022-12-13T05:11:46.178Z,35.00
2022-12-13T05:12:22.937Z,34.92
2022-12-13T05:12:58.195Z,35.02
2022-12-13T05:13:33.132Z,35.27
2022-12-13T05:14:05.365Z,35.39
2022-12-13T05:14:40.173Z,35.25
2022-12-13T05:15:12.566Z,35.13
2022-12-13T05:15:45.068Z,35.13
2022-12-13T05:16:19.967Z,35.40
2022-12-13T05:16:57.191Z,35.21
2022-12-13T05:17:29.414Z,35.47
2022-12-13T05:18:09.799Z,35.35
2022-12-13T05:18:43.161Z,35.05
2022-12-13T05:19:17.997Z,35.21
2022-12-13T05:19:51.595Z,35.40
2022-12-13T05:20:23.808Z,34.99
2022-12-13T05:20:59.090Z,35.03
2022-12-13T05:21:31.300Z,35.30
2022-12-13T05:22:06.132Z,35.29
2022-12-13T05:22:39.208Z,35.45
2022-12-13T05:23:11.497Z,35.40
2022-12-13T05:23:46.303Z,35.21
2022-12-13T05:24:19.360Z,35.34
2022-12-13T05:24:54.211Z,35.25
2022-12-13T05:25:28.232Z,35.04
2022-12-13T05:26:00.719Z,35.00
2022-12-13T05:26:35.530Z,35.06
2022-12-13T05:27:25.441Z,35.35
2022-12-13T05:28:01.348Z,35.06
2022-12-13T05:28:55.809Z,35.19
2022-12-13T05:29:30.930Z,35.24
2022-12-13T05:30:05.316Z,35.21
2022-12-13T05:30:38.318Z,34.95
2022-12-13T05:31:23.108Z,35.04
2022-12-13T05:31:56.359Z,34.99
2022-12-13T05:32:31.317Z,35.16
2022-12-13T05:33:06.214Z,35.44
2022-12-13T05:33:41.064Z,35.38
2022-12-13T05:34:13.284Z,35.09
2022-12-13T05:34:46.300Z,35.06
2022-12-13T05:35:22.867Z,35.38
2022-12-13T05:36:00.530Z,35.46
2022-12-13T05:36:36.837Z,35.59
2022-12-13T05:37:09.069Z,35.35
2022-12-13T05:37:41.303Z,35.06
2022-12-13T05:38:16.151Z,35.30
2022-12-13T05:38:48.415Z,35.31
2022-12-13T05:39:28.383Z,35.28
2022-12-13T05:40:01.756Z,35.18
2022-12-13T05:40:36.584Z,35.21
2022-12-13T05:41:16.397Z,35.51
2022-12-13T05:41:48.736Z,35.41
2022-12-13T05:42:24.507Z,35.43
2022-12-13T05:43:00.752Z,35.36
2022-12-13T05:43:42.367Z,35.47
2022-12-13T05:44:15.608Z,35.45
2022-12-13T05:44:51.700Z,34.64
2022-12-13T05:45:24.055Z,34.63
2022-12-13T05:45:56.307Z,34.89
2022-12-13T05:46:31.166Z,35.39
2022-12-13T05:47:03.417Z,35.59
2022-12-13T05:47:35.768Z,35.96
2022-12-13T05:48:13.233Z,37.86
2022-12-13T05:48:45.560Z,38.11
2022-12-13T05:49:17.768Z,36.71
2022-12-13T05:49:52.632Z,36.41
2022-12-13T05:50:25.396Z,35.95
2022-12-13T05:51:10.681Z,35.58
2022-12-13T05:51:46.302Z,35.30
2022-12-13T05:52:18.520Z,34.85
2022-12-13T05:52:53.345Z,34.89
2022-12-13T05:53:30.506Z,35.00
2022-12-13T05:54:06.217Z,34.88
2022-12-13T05:54:38.532Z,34.94
2022-12-13T05:55:18.156Z,34.64
2022-12-13T05:55:50.776Z,34.56
2022-12-13T05:56:25.684Z,34.92
2022-12-13T05:56:58.658Z,34.74
2022-12-13T05:57:30.929Z,34.86
2022-12-13T05:58:05.740Z,35.08
2022-12-13T05:58:45.869Z,34.90
2022-12-13T05:59:20.911Z,35.09
2022-12-13T05:59:53.154Z,35.03
2022-12-13T06:00:30.308Z,34.91
2022-12-13T06:01:10.462Z,34.89
2022-12-13T06:01:43.820Z,34.89
2022-12-13T06:02:21.588Z,35.11
2022-12-13T06:02:54.563Z,35.06
2022-12-13T06:03:32.165Z,35.23
2022-12-13T06:04:04.468Z,35.33
2022-12-13T06:04:39.293Z,35.08
2022-12-13T06:05:11.984Z,35.36
2022-12-13T06:05:44.717Z,34.95
2022-12-13T06:06:21.268Z,35.26
2022-12-13T06:06:53.689Z,34.97
2022-12-13T06:07:28.513Z,35.04
2022-12-13T06:08:01.129Z,34.90
2022-12-13T06:08:36.159Z,35.08
2022-12-13T06:09:08.498Z,34.99
2022-12-13T06:09:40.982Z,35.11
2022-12-13T06:10:21.800Z,35.28
2022-12-13T06:10:55.188Z,34.90
2022-12-13T06:11:46.659Z,34.97
2022-12-13T06:12:31.543Z,35.21
2022-12-13T06:13:22.009Z,34.99
2022-12-13T06:14:00.992Z,35.30
2022-12-13T06:14:33.478Z,35.24
2022-12-13T06:15:22.088Z,35.08
2022-12-13T06:16:01.390Z,35.24
2022-12-13T06:16:36.822Z,35.06
2022-12-13T06:17:09.084Z,34.89
2022-12-13T06:17:43.969Z,35.25
2022-12-13T06:18:16.239Z,35.26
2022-12-13T06:18:55.787Z,35.05
2022-12-13T06:19:31.096Z,34.83
2022-12-13T06:20:03.838Z,35.15
2022-12-13T06:21:03.062Z,35.04
2022-12-13T06:21:41.845Z,34.86
2022-12-13T06:22:20.510Z,34.97
2022-12-13T06:22:52.749Z,34.86
2022-12-13T06:23:25.088Z,35.06
2022-12-13T06:23:59.911Z,34.96
2022-12-13T06:24:32.205Z,35.28
2022-12-13T06:25:07.961Z,35.01
2022-12-13T06:26:02.992Z,35.06
2022-12-13T06:26:37.863Z,35.01
2022-12-13T06:27:10.116Z,35.32
2022-12-13T06:27:44.915Z,34.96
2022-12-13T06:28:17.646Z,35.25
2022-12-13T06:28:52.463Z,35.06
2022-12-13T06:29:25.731Z,34.98
2022-12-13T06:30:02.592Z,34.96
2022-12-13T06:30:35.243Z,35.16
2022-12-13T06:31:17.639Z,35.26
2022-12-13T06:32:01.320Z,35.21
2022-12-13T06:32:42.552Z,35.07
2022-12-13T06:33:23.150Z,34.90
2022-12-13T06:34:14.672Z,35.09
2022-12-13T06:34:47.515Z,35.25
2022-12-13T06:35:28.505Z,35.20
2022-12-13T06:36:02.201Z,34.93
2022-12-13T06:36:34.692Z,34.92
2022-12-13T06:37:10.888Z,35.21
2022-12-13T06:37:43.174Z,34.83
2022-12-13T06:38:22.075Z,35.08
2022-12-13T06:39:03.877Z,35.04
2022-12-13T06:39:38.712Z,34.87
2022-12-13T06:40:11.833Z,34.88
2022-12-13T06:40:44.037Z,35.11
2022-12-13T06:41:19.706Z,35.11
2022-12-13T06:41:51.948Z,35.28
2022-12-13T06:42:26.751Z,34.85
2022-12-13T06:42:58.965Z,35.07
2022-12-13T06:43:31.198Z,35.18
2022-12-13T06:44:06.058Z,35.01
2022-12-13T06:44:38.256Z,34.76
2022-12-13T06:45:13.292Z,35.09
2022-12-13T06:45:45.582Z,35.16
2022-12-13T06:46:17.881Z,35.06
2022-12-13T06:46:52.704Z,34.84
2022-12-13T06:47:43.061Z,34.75
2022-12-13T06:48:20.298Z,34.82
2022-12-13T06:48:53.076Z,34.88
2022-12-13T06:49:32.269Z,35.03
2022-12-13T06:50:06.180Z,34.78
2022-12-13T06:50:41.015Z,34.99
2022-12-13T06:51:13.335Z,34.84
2022-12-13T06:51:57.980Z,34.81
2022-12-13T06:52:30.234Z,34.72
2022-12-13T06:53:05.048Z,34.81
2022-12-13T06:53:39.101Z,34.75
2022-12-13T06:54:13.913Z,34.99
2022-12-13T06:54:46.222Z,35.18
2022-12-13T06:55:24.071Z,35.27
2022-12-13T06:55:56.819Z,35.25
2022-12-13T06:56:29.205Z,35.21
2022-12-13T06:57:04.040Z,35.08
2022-12-13T06:57:36.255Z,34.87
2022-12-13T06:58:11.072Z,34.88
2022-12-13T06:58:43.552Z,35.06
2022-12-13T06:59:18.367Z,34.94
2022-12-13T06:59:50.584Z,35.22
2022-12-13T07:00:35.648Z,35.25
2022-12-13T07:01:15.148Z,35.33
2022-12-13T07:02:03.517Z,35.28
2022-12-13T07:02:38.287Z,35.13
2022-12-13T07:03:14.768Z,34.84
2022-12-13T07:03:47.058Z,35.18
2022-12-13T07:04:28.906Z,35.23
2022-12-13T07:05:09.211Z,34.90
2022-12-13T07:05:43.337Z,35.08
2022-12-13T07:06:20.092Z,35.06
2022-12-13T07:06:52.290Z,35.33
2022-12-13T07:07:27.924Z,34.96
2022-12-13T07:08:00.235Z,35.10
2022-12-13T07:08:32.754Z,34.84
2022-12-13T07:09:08.468Z,34.79
2022-12-13T07:09:40.972Z,34.86
2022-12-13T07:10:22.932Z,34.89
2022-12-13T07:10:55.498Z,34.79
2022-12-13T07:11:33.190Z,34.65
2022-12-13T07:12:06.992Z,34.76
2022-12-13T07:12:40.059Z,34.81
2022-12-13T07:13:14.888Z,34.74
2022-12-13T07:13:47.116Z,34.49
2022-12-13T07:14:22.061Z,34.53
2022-12-13T07:14:55.126Z,34.30
2022-12-13T07:15:30.013Z,34.58
2022-12-13T07:16:02.338Z,34.41
2022-12-13T07:16:34.638Z,34.33
2022-12-13T07:17:10.949Z,34.37
2022-12-13T07:17:43.267Z,34.45
2022-12-13T07:18:18.176Z,34.69
2022-12-13T07:18:54.508Z,34.66
2022-12-13T07:19:36.189Z,34.50
2022-12-13T07:20:13.731Z,34.72
2022-12-13T07:20:49.037Z,34.43
2022-12-13T07:21:21.920Z,34.55
2022-12-13T07:21:57.175Z,34.56
2022-12-13T07:22:34.600Z,34.45
2022-12-13T07:23:10.386Z,34.39
2022-12-13T07:23:42.636Z,34.56
2022-12-13T07:24:17.497Z,34.25
2022-12-13T07:24:49.740Z,34.50
2022-12-13T07:25:27.756Z,34.72
2022-12-13T07:26:01.011Z,34.70
2022-12-13T07:26:35.861Z,34.41
2022-12-13T07:27:08.078Z,34.77
2022-12-13T07:27:42.872Z,34.30
2022-12-13T07:28:15.073Z,34.45
2022-12-13T07:28:55.064Z,34.82
2022-12-13T07:29:27.914Z,34.68
2022-12-13T07:30:02.778Z,34.55
2022-12-13T07:30:41.267Z,34.78
2022-12-13T07:31:19.150Z,34.75
2022-12-13T07:31:51.410Z,34.31
2022-12-13T07:32:23.662Z,34.38
2022-12-13T07:32:58.506Z,34.50
2022-12-13T07:33:30.739Z,34.79
2022-12-13T07:34:05.659Z,34.74
2022-12-13T07:34:38.022Z,34.33
2022-12-13T07:35:15.462Z,34.68
2022-12-13T07:35:47.691Z,34.60
2022-12-13T07:36:30.299Z,34.40
2022-12-13T07:37:02.505Z,34.68
2022-12-13T07:37:37.311Z,34.35
2022-12-13T07:38:10.941Z,34.72
2022-12-13T07:38:45.804Z,34.35
2022-12-13T07:39:18.063Z,34.29
2022-12-13T07:39:56.720Z,34.35
2022-12-13T07:40:35.820Z,34.24
2022-12-13T07:41:11.972Z,34.37
2022-12-13T07:41:44.269Z,34.41
2022-12-13T07:42:19.261Z,34.44